createdAt,value
2018-12-26T00:00:43.213Z,16.40
2018-12-26T00:03:33.552Z,14.60
2018-12-26T00:06:24.301Z,14.40
2018-12-26T00:09:14.567Z,16.00
2018-12-26T00:12:04.968Z,15.53
2018-12-26T00:14:55.635Z,17.40
2018-12-26T00:17:45.808Z,17.00
2018-12-26T00:20:36.276Z,16.17
2018-12-26T00:23:27.583Z,16.30
2018-12-26T00:26:18.870Z,14.00
2018-12-26T00:29:09.360Z,14.83
2018-12-26T00:32:00.372Z,15.70
2018-12-26T00:34:51.560Z,14.63
2018-12-26T00:37:43.026Z,14.63
2018-12-26T00:40:33.520Z,15.97
2018-12-26T00:43:24.191Z,16.37
2018-12-26T00:46:14.271Z,13.80
2018-12-26T00:49:04.881Z,16.33
2018-12-26T00:51:55.902Z,13.50
2018-12-26T00:54:46.339Z,13.87
2018-12-26T00:57:38.053Z,15.83
2018-12-26T01:00:29.426Z,14.17
2018-12-26T01:03:19.616Z,12.57
2018-12-26T01:06:10.531Z,11.87
2018-12-26T01:09:00.899Z,12.60
2018-12-26T01:11:53.691Z,14.00
2018-12-26T01:14:44.701Z,15.40
2018-12-26T01:17:35.005Z,14.03
2018-12-26T01:20:26.209Z,13.33
2018-12-26T01:23:17.125Z,12.53
2018-12-26T01:26:07.596Z,12.17
2018-12-26T01:28:57.957Z,12.57
2018-12-26T01:31:49.004Z,15.37
2018-12-26T01:34:40.265Z,16.37
2018-12-26T01:37:30.387Z,20.33
2018-12-26T01:40:21.430Z,17.13
2018-12-26T01:43:12.644Z,18.90
2018-12-26T01:46:02.948Z,16.20
2018-12-26T01:48:55.048Z,15.27
2018-12-26T01:51:45.390Z,17.63
2018-12-26T01:54:36.376Z,18.00
2018-12-26T01:57:27.084Z,17.00
2018-12-26T02:00:18.398Z,14.50
2018-12-26T02:03:09.862Z,14.97
2018-12-26T02:06:01.368Z,15.90
2018-12-26T02:08:52.889Z,17.33
2018-12-26T02:11:43.428Z,15.83
2018-12-26T02:14:34.321Z,15.10
2018-12-26T02:17:25.720Z,14.23
2018-12-26T02:20:16.014Z,13.13
2018-12-26T02:23:06.432Z,13.60
2018-12-26T02:25:56.765Z,14.60
2018-12-26T02:28:47.831Z,15.37
2018-12-26T02:31:38.211Z,13.37
2018-12-26T02:34:28.836Z,15.27
2018-12-26T02:37:19.110Z,12.20
2018-12-26T02:40:09.367Z,14.40
2018-12-26T02:43:00.818Z,15.20
2018-12-26T02:45:52.035Z,12.93
2018-12-26T02:48:43.221Z,11.80
2018-12-26T02:51:34.608Z,14.10
2018-12-26T02:54:26.693Z,12.70
2018-12-26T02:57:17.802Z,13.77
2018-12-26T03:00:09.021Z,12.63
2018-12-26T03:02:59.832Z,12.10
2018-12-26T03:05:50.043Z,13.87
2018-12-26T03:08:40.686Z,10.67
2018-12-26T03:11:31.881Z,11.90
2018-12-26T03:14:23.223Z,12.33
2018-12-26T03:17:13.457Z,13.00
2018-12-26T03:20:03.883Z,10.57
2018-12-26T03:22:54.705Z,10.90
2018-12-26T03:25:46.097Z,10.27
2018-12-26T03:28:37.093Z,11.63
2018-12-26T03:31:27.242Z,11.77
2018-12-26T03:34:18.290Z,11.43
2018-12-26T03:37:09.632Z,13.73
2018-12-26T03:40:01.240Z,14.20
2018-12-26T03:42:52.753Z,14.83
2018-12-26T03:45:43.990Z,13.30
2018-12-26T03:48:34.663Z,13.33
2018-12-26T03:51:25.865Z,12.30
2018-12-26T03:54:16.543Z,12.03
2018-12-26T03:57:07.777Z,10.50
2018-12-26T03:59:58.001Z,11.07
2018-12-26T04:02:48.987Z,9.00
2018-12-26T04:05:40.102Z,9.00
2018-12-26T04:08:30.670Z,10.10
2018-12-26T04:11:20.865Z,9.23
2018-12-26T04:14:11.012Z,8.50
2018-12-26T04:17:02.319Z,8.93
2018-12-26T04:19:53.539Z,9.23
2018-12-26T04:22:44.361Z,9.17
2018-12-26T04:25:34.691Z,8.43
2018-12-26T04:28:24.979Z,9.00
2018-12-26T04:31:15.669Z,9.83
2018-12-26T04:34:06.401Z,7.83
2018-12-26T04:36:56.856Z,9.73
2018-12-26T04:39:47.837Z,9.43
2018-12-26T04:42:38.504Z,8.50
2018-12-26T04:45:29.241Z,8.30
2018-12-26T04:48:20.427Z,7.50
2018-12-26T04:51:11.683Z,6.77
2018-12-26T04:54:02.294Z,7.37
2018-12-26T04:56:55.337Z,8.13
2018-12-26T04:59:45.724Z,7.30
2018-12-26T05:02:36.738Z,8.63
2018-12-26T05:05:27.020Z,9.10
2018-12-26T05:08:17.676Z,8.97
2018-12-26T05:11:08.526Z,7.10
2018-12-26T05:13:59.662Z,7.13
2018-12-26T05:16:49.945Z,8.03
2018-12-26T05:19:40.119Z,8.50
2018-12-26T05:22:30.859Z,9.33
2018-12-26T05:25:21.832Z,9.30
2018-12-26T05:28:12.520Z,8.50
2018-12-26T05:31:03.214Z,9.33
2018-12-26T05:33:53.667Z,9.50
2018-12-26T05:36:44.025Z,8.53
2018-12-26T05:39:34.091Z,8.93
2018-12-26T05:42:25.131Z,8.67
2018-12-26T05:45:16.092Z,10.37
2018-12-26T05:48:07.612Z,12.97
2018-12-26T05:50:58.686Z,9.80
2018-12-26T05:53:49.468Z,8.13
2018-12-26T05:56:40.742Z,9.20
2018-12-26T05:59:31.342Z,9.57
2018-12-26T06:02:21.738Z,9.07
2018-12-26T06:05:12.269Z,9.43
2018-12-26T06:08:02.577Z,9.07
2018-12-26T06:10:53.017Z,8.50
2018-12-26T06:13:44.219Z,7.73
2018-12-26T06:16:35.490Z,7.47
2018-12-26T06:19:26.320Z,8.23
2018-12-26T06:22:16.462Z,8.37
2018-12-26T06:25:07.973Z,9.47
2018-12-26T06:27:59.402Z,8.97
2018-12-26T06:30:49.981Z,7.97
2018-12-26T06:33:41.106Z,7.60
2018-12-26T06:36:32.188Z,7.63
2018-12-26T06:39:23.451Z,7.57
2018-12-26T06:42:13.559Z,7.70
2018-12-26T06:45:03.877Z,6.10
2018-12-26T06:47:56.441Z,6.33
2018-12-26T06:50:47.685Z,5.83
2018-12-26T06:53:38.983Z,6.20
2018-12-26T06:56:30.297Z,6.10
2018-12-26T06:59:20.652Z,7.60
2018-12-26T07:02:11.392Z,8.63
2018-12-26T07:05:02.405Z,7.10
2018-12-26T07:07:53.677Z,6.83
2018-12-26T07:10:43.914Z,9.10
2018-12-26T07:13:34.406Z,9.10
2018-12-26T07:16:25.307Z,10.53
2018-12-26T07:19:15.829Z,8.50
2018-12-26T07:22:07.416Z,9.27
2018-12-26T07:24:58.523Z,5.83
2018-12-26T07:27:48.831Z,6.30
2018-12-26T07:30:39.761Z,6.90
2018-12-26T07:33:30.160Z,6.53
2018-12-26T07:36:20.850Z,7.20
2018-12-26T07:39:12.147Z,6.73
2018-12-26T07:42:03.429Z,5.47
2018-12-26T07:44:54.618Z,5.43
2018-12-26T07:47:44.721Z,6.20
2018-12-26T07:50:35.993Z,6.67
2018-12-26T07:53:26.869Z,7.87
2018-12-26T07:56:17.801Z,7.80
2018-12-26T07:59:08.255Z,8.33
2018-12-26T08:01:59.153Z,7.83
2018-12-26T08:04:51.501Z,8.80
2018-12-26T08:07:42.236Z,8.27
2018-12-26T08:10:32.737Z,7.07
2018-12-26T08:13:23.475Z,8.97
2018-12-26T08:16:13.536Z,7.33
2018-12-26T08:19:04.457Z,7.50
2018-12-26T08:21:54.709Z,7.77
2018-12-26T08:24:45.656Z,8.17
2018-12-26T08:27:36.951Z,7.03
2018-12-26T08:30:27.763Z,8.23
2018-12-26T08:33:19.085Z,8.10
2018-12-26T08:36:10.035Z,7.70
2018-12-26T08:39:00.769Z,8.77
2018-12-26T08:41:53.207Z,8.30
2018-12-26T08:44:43.453Z,9.47
2018-12-26T08:47:34.435Z,8.77
2018-12-26T08:50:25.894Z,9.50
2018-12-26T08:53:17.284Z,8.13
2018-12-26T08:56:07.663Z,9.37
2018-12-26T08:58:58.234Z,9.43
2018-12-26T09:01:49.452Z,10.23
2018-12-26T09:04:40.696Z,10.83
2018-12-26T09:07:31.339Z,8.90
2018-12-26T09:10:22.602Z,9.83
2018-12-26T09:13:12.973Z,11.60
2018-12-26T09:16:03.312Z,10.83
2018-12-26T09:18:53.583Z,11.13
2018-12-26T09:21:44.600Z,11.50
2018-12-26T09:24:35.922Z,13.47
2018-12-26T09:27:26.304Z,11.00
2018-12-26T09:30:17.566Z,11.70
2018-12-26T09:33:08.729Z,12.37
2018-12-26T09:35:59.972Z,12.27
2018-12-26T09:38:50.427Z,11.27
2018-12-26T09:41:41.187Z,13.73
2018-12-26T09:44:31.251Z,14.83
2018-12-26T09:47:21.525Z,11.70
2018-12-26T09:50:13.017Z,9.83
2018-12-26T09:53:04.043Z,10.17
2018-12-26T09:55:54.232Z,10.70
2018-12-26T09:58:52.299Z,10.20
2018-12-26T10:01:37.094Z,8.00
2018-12-26T10:04:28.137Z,8.10
2018-12-26T10:07:19.292Z,7.73
2018-12-26T10:10:09.585Z,8.57
2018-12-26T10:13:00.865Z,9.77
2018-12-26T10:15:52.041Z,9.93
2018-12-26T10:18:43.002Z,9.53
2018-12-26T10:21:33.619Z,8.30
2018-12-26T10:24:24.811Z,7.50
2018-12-26T10:27:16.313Z,25.57
2018-12-26T10:30:07.980Z,10.13
2018-12-26T10:32:59.249Z,8.97
2018-12-26T10:35:49.891Z,9.53
2018-12-26T10:38:41.074Z,9.70
2018-12-26T10:41:31.537Z,10.00
2018-12-26T10:44:21.873Z,10.27
2018-12-26T10:47:12.253Z,10.13
2018-12-26T10:50:02.906Z,11.17
2018-12-26T10:52:53.596Z,10.23
2018-12-26T10:55:44.543Z,10.30
2018-12-26T10:58:35.860Z,9.90
2018-12-26T11:01:26.889Z,10.60
2018-12-26T11:04:18.310Z,11.00
2018-12-26T11:07:09.000Z,12.63
2018-12-26T11:10:00.174Z,11.17
2018-12-26T11:12:50.720Z,10.80
2018-12-26T11:15:41.854Z,12.27
2018-12-26T11:18:32.492Z,12.70
2018-12-26T11:21:22.783Z,13.03
2018-12-26T11:24:13.756Z,12.00
2018-12-26T11:27:04.774Z,12.33
2018-12-26T11:29:55.512Z,12.17
2018-12-26T11:32:45.927Z,11.53
2018-12-26T11:35:36.299Z,12.00
2018-12-26T11:38:27.406Z,11.53
2018-12-26T11:41:18.091Z,12.93
2018-12-26T11:44:08.509Z,12.93
2018-12-26T11:46:59.837Z,11.60
2018-12-26T11:49:51.205Z,12.07
2018-12-26T11:52:42.014Z,11.93
2018-12-26T11:55:36.071Z,12.83
2018-12-26T11:58:26.775Z,13.03
2018-12-26T12:01:17.671Z,14.43
2018-12-26T12:04:08.091Z,14.07
2018-12-26T12:06:58.874Z,14.07
2018-12-26T12:09:49.984Z,13.87
2018-12-26T12:12:40.261Z,15.23
2018-12-26T12:15:31.052Z,15.53
2018-12-26T12:18:22.531Z,16.17
2018-12-26T12:21:12.849Z,13.17
2018-12-26T12:24:04.133Z,16.87
2018-12-26T12:26:54.893Z,15.07
2018-12-26T12:29:46.217Z,14.60
2018-12-26T12:32:36.500Z,16.43
2018-12-26T12:35:27.342Z,15.33
2018-12-26T12:38:17.925Z,16.27
2018-12-26T12:41:26.769Z,17.70
2018-12-26T12:44:30.725Z,17.13
2018-12-26T12:47:41.454Z,17.67
2018-12-26T12:50:45.082Z,16.57
2018-12-26T12:53:55.909Z,17.60
2018-12-26T12:56:59.464Z,18.23
2018-12-26T13:00:12.400Z,18.83
2018-12-26T13:03:15.723Z,18.13
2018-12-26T13:06:26.585Z,16.57
2018-12-26T13:09:29.800Z,17.73
2018-12-26T13:12:40.524Z,19.40
2018-12-26T13:15:44.349Z,17.50
2018-12-26T13:18:55.069Z,18.30
2018-12-26T13:21:58.790Z,16.93
2018-12-26T13:25:09.861Z,17.47
2018-12-26T13:28:14.505Z,17.47
2018-12-26T13:31:18.363Z,18.10
2018-12-26T13:34:22.338Z,16.23
2018-12-26T13:37:41.194Z,16.30
2018-12-26T13:40:44.228Z,16.40
2018-12-26T13:43:54.949Z,18.90
2018-12-26T13:46:58.716Z,15.50
2018-12-26T13:50:09.676Z,20.43
2018-12-26T13:53:12.804Z,16.30
2018-12-26T13:56:23.497Z,16.77
2018-12-26T13:59:27.717Z,17.17
2018-12-26T14:02:38.415Z,18.60
2018-12-26T14:05:42.485Z,17.87
2018-12-26T14:08:53.218Z,16.80
2018-12-26T14:11:56.323Z,16.20
2018-12-26T14:15:08.058Z,18.80
2018-12-26T14:18:11.863Z,19.07
2018-12-26T14:21:22.657Z,17.33
2018-12-26T14:24:26.489Z,16.00
2018-12-26T14:27:37.185Z,17.97
2018-12-26T14:30:39.018Z,17.73
2018-12-26T14:33:49.716Z,16.87
2018-12-26T14:36:53.662Z,15.37
2018-12-26T14:40:05.032Z,15.20
2018-12-26T14:43:08.742Z,17.13
2018-12-26T14:46:19.468Z,16.67
2018-12-26T14:49:23.293Z,16.67
2018-12-26T14:52:34.085Z,16.90
2018-12-26T14:55:37.849Z,16.83
2018-12-26T14:58:48.743Z,15.53
2018-12-26T15:01:52.795Z,18.07
2018-12-26T15:05:03.639Z,18.13
2018-12-26T15:08:07.408Z,16.93
2018-12-26T15:11:11.429Z,16.57
2018-12-26T15:14:03.160Z,17.37
2018-12-26T15:17:07.036Z,16.50
2018-12-26T15:20:17.935Z,15.27
2018-12-26T15:23:21.988Z,14.67
2018-12-26T15:26:25.294Z,14.37
2018-12-26T15:29:36.448Z,17.47
2018-12-26T15:32:40.469Z,15.60
2018-12-26T15:35:51.421Z,17.70
2018-12-26T15:38:54.681Z,16.93
2018-12-26T15:41:58.725Z,18.97
2018-12-26T15:45:09.606Z,15.60
2018-12-26T15:48:13.472Z,17.47
2018-12-26T15:51:24.312Z,15.30
2018-12-26T15:54:28.586Z,17.53
2018-12-26T15:57:32.557Z,17.30
2018-12-26T16:00:43.460Z,15.73
2018-12-26T16:03:49.454Z,15.30
2018-12-26T16:07:00.376Z,18.27
2018-12-26T16:10:05.438Z,19.27
2018-12-26T16:13:09.289Z,18.30
2018-12-26T16:16:20.205Z,16.23
2018-12-26T16:19:24.214Z,17.43
2018-12-26T16:22:35.157Z,19.10
2018-12-26T16:25:39.001Z,16.30
2018-12-26T16:28:42.668Z,15.80
2018-12-26T16:31:46.297Z,17.10
2018-12-26T16:34:57.194Z,16.27
2018-12-26T16:38:01.770Z,17.53
2018-12-26T16:41:12.987Z,15.73
2018-12-26T16:44:17.292Z,15.90
2018-12-26T16:47:30.998Z,16.77
2018-12-26T16:50:34.378Z,18.10
2018-12-26T16:53:45.372Z,17.63
2018-12-26T16:56:49.419Z,16.80
2018-12-26T17:00:00.357Z,18.80
2018-12-26T17:03:04.454Z,15.60
2018-12-26T17:06:15.343Z,18.67
2018-12-26T17:09:18.675Z,18.63
2018-12-26T17:12:29.598Z,18.30
2018-12-26T17:15:33.721Z,19.87
2018-12-26T17:18:44.657Z,27.83
2018-12-26T17:21:48.743Z,20.70
2018-12-26T17:24:59.673Z,19.57
2018-12-26T17:28:03.475Z,24.33
2018-12-26T17:31:07.372Z,22.17
2018-12-26T17:34:11.420Z,19.50
2018-12-26T17:37:22.336Z,20.27
2018-12-26T17:40:25.708Z,20.03
2018-12-26T17:43:36.708Z,14.53
2018-12-26T17:46:40.775Z,15.47
2018-12-26T17:49:42.795Z,15.53
2018-12-26T17:52:53.711Z,17.20
2018-12-26T17:56:08.598Z,21.77
2018-12-26T17:59:57.926Z,17.40
2018-12-26T18:03:01.760Z,18.70
2018-12-26T18:06:05.379Z,21.50
2018-12-26T18:09:16.341Z,20.13
2018-12-26T18:12:19.622Z,23.83
2018-12-26T18:15:22.986Z,20.60
2018-12-26T18:18:26.621Z,21.90
2018-12-26T18:21:30.618Z,20.97
2018-12-26T18:24:41.522Z,20.93
2018-12-26T18:27:45.528Z,18.90
2018-12-26T18:30:49.441Z,21.37
2018-12-26T18:34:00.324Z,18.10
2018-12-26T18:37:04.176Z,19.87
2018-12-26T18:40:15.120Z,18.77
2018-12-26T18:43:18.416Z,19.47
2018-12-26T18:46:21.813Z,23.07
2018-12-26T18:49:32.729Z,21.30
2018-12-26T18:52:36.744Z,18.67
2018-12-26T18:55:47.805Z,19.90
2018-12-26T18:58:51.627Z,21.37
2018-12-26T19:01:54.891Z,20.10
2018-12-26T19:05:08.043Z,21.07
2018-12-26T19:08:11.315Z,19.93
2018-12-26T19:11:22.237Z,20.90
2018-12-26T19:14:25.420Z,18.67
2018-12-26T19:17:29.600Z,17.97
2018-12-26T19:20:40.571Z,17.03
2018-12-26T19:23:44.438Z,18.57
2018-12-26T19:26:48.408Z,17.67
2018-12-26T19:29:59.687Z,17.27
2018-12-26T19:33:03.791Z,15.23
2018-12-26T19:36:14.730Z,18.00
2018-12-26T19:39:18.476Z,19.20
2018-12-26T19:42:22.556Z,17.50
2018-12-26T19:45:33.450Z,15.87
2018-12-26T19:48:36.732Z,18.37
2018-12-26T19:51:47.664Z,18.87
2018-12-26T19:54:51.480Z,17.23
2018-12-26T19:58:02.437Z,17.63
2018-12-26T20:01:05.883Z,15.87
2018-12-26T20:04:17.960Z,19.43
2018-12-26T20:07:21.335Z,21.97
2018-12-26T20:10:32.240Z,17.00
2018-12-26T20:13:37.244Z,16.53
2018-12-26T20:16:48.155Z,17.47
2018-12-26T20:19:51.967Z,16.77
2018-12-26T20:23:02.909Z,18.90
2018-12-26T20:26:06.766Z,18.30
2018-12-26T20:29:17.689Z,17.07
2018-12-26T20:32:20.982Z,17.73
2018-12-26T20:35:32.874Z,19.87
2018-12-26T20:38:37.035Z,14.90
2018-12-26T20:41:47.922Z,16.90
2018-12-26T20:44:57.711Z,16.63
2018-12-26T20:48:08.628Z,15.13
2018-12-26T20:51:12.487Z,16.33
2018-12-26T20:54:23.294Z,16.07
2018-12-26T20:57:26.967Z,16.10
2018-12-26T21:00:37.934Z,16.87
2018-12-26T21:03:41.551Z,16.20
2018-12-26T21:06:52.255Z,15.53
2018-12-26T21:09:56.083Z,14.90
2018-12-26T21:13:06.874Z,15.13
2018-12-26T21:15:58.349Z,17.07
2018-12-26T21:18:49.466Z,18.03
2018-12-26T21:21:40.433Z,20.07
2018-12-26T21:24:31.524Z,19.30
2018-12-26T21:27:22.824Z,15.93
2018-12-26T21:30:15.951Z,17.30
2018-12-26T21:33:06.446Z,17.00
2018-12-26T21:35:56.908Z,17.23
2018-12-26T21:38:47.595Z,16.90
2018-12-26T21:41:38.237Z,18.13
2018-12-26T21:44:28.790Z,18.73
2018-12-26T21:47:19.488Z,18.30
2018-12-26T21:50:12.674Z,16.90
2018-12-26T21:53:03.061Z,16.60
2018-12-26T21:55:53.854Z,16.43
2018-12-26T21:58:44.499Z,15.43
2018-12-26T22:01:35.453Z,15.10
2018-12-26T22:04:26.152Z,14.07
2018-12-26T22:07:16.500Z,15.17
2018-12-26T22:10:07.204Z,16.17
2018-12-26T22:12:57.379Z,16.13
2018-12-26T22:15:48.537Z,12.77
2018-12-26T22:18:39.747Z,15.70
2018-12-26T22:21:30.573Z,15.53
2018-12-26T22:24:21.565Z,14.80
2018-12-26T22:27:12.301Z,14.87
2018-12-26T22:30:03.077Z,13.97
2018-12-26T22:32:55.078Z,16.30
2018-12-26T22:35:46.057Z,16.67
2018-12-26T22:38:36.921Z,20.77
2018-12-26T22:41:27.684Z,19.17
2018-12-26T22:44:17.601Z,17.60
2018-12-26T22:47:09.636Z,18.17
2018-12-26T22:50:00.628Z,19.77
2018-12-26T22:52:51.542Z,19.80
2018-12-26T22:55:41.623Z,21.07
2018-12-26T22:58:32.204Z,19.90
2018-12-26T23:01:23.472Z,18.80
2018-12-26T23:04:14.636Z,18.40
2018-12-26T23:07:05.759Z,17.20
2018-12-26T23:09:56.681Z,19.13
2018-12-26T23:12:47.108Z,17.27
2018-12-26T23:15:37.234Z,17.93
2018-12-26T23:18:27.340Z,18.43
2018-12-26T23:21:17.185Z,16.80
2018-12-26T23:24:07.262Z,16.73
2018-12-26T23:26:58.023Z,18.13
2018-12-26T23:29:48.835Z,16.60
2018-12-26T23:32:46.722Z,18.17
2018-12-26T23:35:31.742Z,16.90
2018-12-26T23:38:22.461Z,15.83
2018-12-26T23:41:13.411Z,19.03
2018-12-26T23:44:03.706Z,17.67
2018-12-26T23:46:54.388Z,15.57
2018-12-26T23:49:44.804Z,17.67
2018-12-26T23:52:35.907Z,15.90
2018-12-26T23:55:26.067Z,18.20
2018-12-26T23:58:16.847Z,16.77
